Time;durP1;ratioP1;P1;durP2;ratioP2;P2;SDS_P1;SDS_P2;PMS_P1;PMS_P2;Temp;Humidity;BMP_temperature;BMP_pressure;BME280_temperature;BME280_humidity;BME280_pressure;Samples;Min_cycle;Max_cycle;Signal;HPM_P1;HPM_P2
2021/12/16 00:02:08;;;;;;;68.03;25.63;;;6.90;99.90;;;;;;5059058;28;20557;-68
2021/12/16 00:07:33;;;;;;;64.73;26.13;;;7.00;99.90;;;;;;5069615;28;20201;-67
2021/12/16 00:10:10;;;;;;;62.57;26.43;;;7.00;99.90;;;;;;5067048;28;20221;-68
2021/12/16 00:32:33;;;;;;;57.97;24.50;;;7.00;99.90;;;;;;5008808;28;20202;-67
2021/12/16 00:35:02;;;;;;;64.73;26.00;;;7.00;99.90;;;;;;5001065;28;20617;-68
2021/12/16 00:37:29;;;;;;;55.67;23.67;;;7.10;99.90;;;;;;5037779;28;20362;-67
2021/12/16 00:39:56;;;;;;;61.90;23.77;;;7.10;99.90;;;;;;5070971;28;20284;-68
2021/12/16 00:42:34;;;;;;;58.00;24.60;;;7.10;99.90;;;;;;5053857;28;20617;-69
2021/12/16 00:45:18;;;;;;;60.70;25.13;;;7.10;99.90;;;;;;5061013;28;20198;-68
2021/12/16 00:47:56;;;;;;;68.93;25.60;;;7.10;99.90;;;;;;5055592;28;20225;-67
2021/12/16 00:56:01;;;;;;;64.90;24.53;;;7.10;99.90;;;;;;5055557;28;20205;-68
2021/12/16 00:58:33;;;;;;;65.27;24.80;;;7.10;99.90;;;;;;5055328;28;20296;-67
2021/12/16 01:01:08;;;;;;;63.33;25.13;;;7.10;99.90;;;;;;5054503;28;20234;-67
2021/12/16 01:03:42;;;;;;;71.43;25.70;;;7.10;99.90;;;;;;5059762;28;20197;-68
2021/12/16 01:06:30;;;;;;;67.50;24.50;;;7.10;99.90;;;;;;5061972;28;20213;-68
2021/12/16 01:34:12;;;;;;;47.87;21.63;;;7.20;99.90;;;;;;5057240;28;20199;-68
2021/12/16 01:36:58;;;;;;;47.77;21.17;;;7.20;99.90;;;;;;5053832;28;20216;-69
2021/12/16 01:42:45;;;;;;;53.20;21.57;;;7.20;99.90;;;;;;5056117;28;20201;-67
2021/12/16 01:48:48;;;;;;;56.20;22.00;;;7.20;99.90;;;;;;5044638;28;20768;-68
2021/12/16 01:51:16;;;;;;;57.20;24.73;;;7.20;99.90;;;;;;5056171;28;20249;-68
2021/12/16 01:56:43;;;;;;;54.57;23.43;;;7.20;99.90;;;;;;5042551;28;20234;-68
2021/12/16 01:59:16;;;;;;;54.50;24.07;;;7.20;99.90;;;;;;5055094;28;20647;-68
2021/12/16 02:01:43;;;;;;;54.00;22.90;;;7.20;99.90;;;;;;5056734;28;20205;-68
2021/12/16 02:04:19;;;;;;;57.80;23.83;;;7.30;99.90;;;;;;5054019;28;20205;-67
2021/12/16 02:07:01;;;;;;;48.90;23.67;;;7.20;99.90;;;;;;5070489;28;20287;-68
2021/12/16 02:09:35;;;;;;;57.20;24.00;;;7.30;99.90;;;;;;5069541;28;20231;-67
2021/12/16 02:12:14;;;;;;;58.77;24.93;;;7.30;99.90;;;;;;5054756;28;20690;-67
2021/12/16 02:28:51;;;;;;;50.17;22.37;;;7.30;99.90;;;;;;5048288;28;20818;-67
2021/12/16 02:31:44;;;;;;;55.53;24.70;;;7.30;99.90;;;;;;5073230;28;20248;-67
2021/12/16 02:34:28;;;;;;;50.20;22.23;;;7.30;99.90;;;;;;5065895;28;20201;-68
2021/12/16 02:36:56;;;;;;;51.07;24.17;;;7.30;99.90;;;;;;5052478;28;20206;-69
2021/12/16 02:39:26;;;;;;;48.97;23.37;;;7.30;99.90;;;;;;5058669;28;20204;-68
2021/12/16 02:41:57;;;;;;;49.33;21.53;;;7.30;99.90;;;;;;5067863;28;20620;-67
2021/12/16 02:50:05;;;;;;;54.03;24.07;;;7.30;99.90;;;;;;5031612;28;20574;-67
2021/12/16 02:52:34;;;;;;;47.03;21.90;;;7.30;99.90;;;;;;5064425;28;20255;-67
2021/12/16 02:55:01;;;;;;;55.10;24.60;;;7.30;99.90;;;;;;5057952;28;20264;-67
2021/12/16 02:57:28;;;;;;;52.40;23.90;;;7.30;99.90;;;;;;5071680;28;20257;-68
2021/12/16 02:59:55;;;;;;;45.30;21.97;;;7.30;99.90;;;;;;5053984;28;20206;-68
2021/12/16 03:02:24;;;;;;;50.27;23.83;;;7.30;99.90;;;;;;5052098;28;20237;-67
2021/12/16 03:04:54;;;;;;;51.07;24.27;;;7.30;99.90;;;;;;5054075;28;20210;-68
2021/12/16 03:07:22;;;;;;;49.80;23.00;;;7.30;99.90;;;;;;5063078;28;20315;-68
2021/12/16 03:10:29;;;;;;;54.20;23.30;;;7.30;99.90;;;;;;5052355;28;20336;-67
2021/12/16 03:13:01;;;;;;;50.23;22.53;;;7.30;99.90;;;;;;5052118;28;20209;-67
2021/12/16 03:18:22;;;;;;;46.80;22.57;;;7.30;99.90;;;;;;5050707;28;20604;-67
2021/12/16 03:20:55;;;;;;;48.50;23.27;;;7.30;99.90;;;;;;5071088;28;20697;-68
2021/12/16 03:23:37;;;;;;;46.03;22.57;;;7.30;99.90;;;;;;5060764;28;20237;-68
2021/12/16 03:26:41;;;;;;;48.50;23.33;;;7.30;99.90;;;;;;5052037;28;20202;-67
2021/12/16 03:32:14;;;;;;;45.80;22.53;;;7.30;99.90;;;;;;5033812;28;20613;-68
2021/12/16 03:34:55;;;;;;;44.57;23.27;;;7.30;99.90;;;;;;5061486;28;20209;-68
2021/12/16 03:37:24;;;;;;;40.53;21.73;;;7.30;99.90;;;;;;5055181;28;20223;-67
2021/12/16 03:39:54;;;;;;;50.53;23.53;;;7.30;99.90;;;;;;5062715;28;20225;-67
2021/12/16 03:42:25;;;;;;;44.43;22.17;;;7.30;99.90;;;;;;5057870;28;20202;-67
2021/12/16 03:44:56;;;;;;;50.13;22.70;;;7.40;99.90;;;;;;5052126;28;20297;-67
2021/12/16 03:47:31;;;;;;;47.70;23.17;;;7.40;99.90;;;;;;5051456;28;20288;-67
2021/12/16 03:49:58;;;;;;;45.37;22.07;;;7.40;99.90;;;;;;5065925;28;20215;-67
2021/12/16 03:52:26;;;;;;;44.73;21.90;;;7.40;99.90;;;;;;5052137;28;20701;-67
2021/12/16 03:54:56;;;;;;;45.17;22.33;;;7.40;99.90;;;;;;5065831;28;20670;-67
2021/12/16 03:57:30;;;;;;;46.17;22.47;;;7.40;99.90;;;;;;5051041;28;20245;-68
2021/12/16 03:59:58;;;;;;;44.73;21.63;;;7.40;99.90;;;;;;5051605;28;20619;-67
2021/12/16 04:02:29;;;;;;;47.10;23.17;;;7.40;99.90;;;;;;5051664;28;20292;-67
2021/12/16 04:04:56;;;;;;;46.93;23.80;;;7.40;99.90;;;;;;5051134;28;20293;-67
2021/12/16 04:07:25;;;;;;;41.50;21.97;;;7.40;99.90;;;;;;5051592;28;20581;-68
2021/12/16 04:09:53;;;;;;;42.53;22.33;;;7.40;99.90;;;;;;5052347;28;20297;-66
2021/12/16 04:12:24;;;;;;;43.03;21.70;;;7.40;99.90;;;;;;5051153;28;20301;-68
2021/12/16 04:14:55;;;;;;;42.80;22.23;;;7.50;99.90;;;;;;5051876;28;20272;-67
2021/12/16 04:17:24;;;;;;;43.57;21.90;;;7.40;99.90;;;;;;5058885;28;20662;-68
2021/12/16 04:19:52;;;;;;;41.57;22.13;;;7.40;99.90;;;;;;5059051;28;20265;-67
2021/12/16 04:22:27;;;;;;;44.63;23.33;;;7.40;99.90;;;;;;5069198;28;20517;-68
2021/12/16 04:24:55;;;;;;;43.40;22.87;;;7.40;99.90;;;;;;5055592;28;20205;-68
2021/12/16 04:27:22;;;;;;;47.10;22.97;;;7.40;99.90;;;;;;5062253;28;20304;-68
2021/12/16 04:29:49;;;;;;;43.50;23.43;;;7.30;99.90;;;;;;5054360;28;20233;-68
2021/12/16 04:32:18;;;;;;;44.07;23.50;;;7.40;99.90;;;;;;5058864;28;20301;-68
2021/12/16 04:34:46;;;;;;;46.00;23.40;;;7.40;99.90;;;;;;5064384;28;20234;-68
2021/12/16 04:37:13;;;;;;;44.17;21.50;;;7.30;99.90;;;;;;5068741;28;20293;-68
2021/12/16 04:39:42;;;;;;;44.07;23.03;;;7.30;99.90;;;;;;5055637;28;20259;-67
2021/12/16 04:42:12;;;;;;;42.93;23.60;;;7.30;99.90;;;;;;5055179;28;20263;-67
2021/12/16 04:44:41;;;;;;;41.90;23.33;;;7.30;99.90;;;;;;5062858;28;20642;-68
2021/12/16 04:47:08;;;;;;;42.83;21.97;;;7.40;99.90;;;;;;5060282;28;20209;-68
2021/12/16 04:49:37;;;;;;;43.13;22.37;;;7.30;99.90;;;;;;5070450;28;20288;-69
2021/12/16 04:52:08;;;;;;;40.80;22.13;;;7.40;99.90;;;;;;5080322;28;20319;-68
2021/12/16 04:54:35;;;;;;;43.77;23.73;;;7.40;99.90;;;;;;5078457;28;20201;-68
2021/12/16 04:57:02;;;;;;;40.07;21.97;;;7.40;99.90;;;;;;5065190;28;20225;-67
2021/12/16 04:59:31;;;;;;;42.53;22.93;;;7.30;99.90;;;;;;5061332;28;20298;-68
2021/12/16 05:02:02;;;;;;;40.50;21.43;;;7.40;99.90;;;;;;5054896;28;20281;-68
2021/12/16 05:04:31;;;;;;;40.57;22.93;;;7.30;99.90;;;;;;5057450;28;20234;-67
2021/12/16 05:07:00;;;;;;;39.60;23.67;;;7.30;99.90;;;;;;5055351;28;20284;-67
2021/12/16 05:10:01;;;;;;;42.77;22.77;;;7.40;99.90;;;;;;5053930;28;20625;-68
2021/12/16 05:12:28;;;;;;;40.57;22.67;;;7.30;99.90;;;;;;5060984;28;20233;-68
2021/12/16 05:14:55;;;;;;;40.93;22.10;;;7.40;99.90;;;;;;5052961;28;20249;-68
2021/12/16 05:17:27;;;;;;;41.40;23.00;;;7.40;99.90;;;;;;5053174;28;20321;-67
2021/12/16 05:19:55;;;;;;;42.77;22.70;;;7.40;99.90;;;;;;5053183;28;20280;-69
2021/12/16 05:25:18;;;;;;;38.40;21.83;;;7.40;99.90;;;;;;5067326;28;20212;-68
2021/12/16 05:27:45;;;;;;;38.20;22.70;;;7.40;99.90;;;;;;5066520;28;20281;-68
2021/12/16 05:30:13;;;;;;;40.17;22.73;;;7.40;99.90;;;;;;5072467;28;20205;-67
2021/12/16 05:32:45;;;;;;;39.83;22.33;;;7.30;99.90;;;;;;5073454;28;20212;-68
2021/12/16 05:35:13;;;;;;;39.53;22.40;;;7.30;99.90;;;;;;5059409;28;20260;-68
2021/12/16 05:37:43;;;;;;;40.30;23.40;;;7.40;99.90;;;;;;5052951;28;20205;-68
2021/12/16 05:40:11;;;;;;;42.17;22.63;;;7.40;99.90;;;;;;5053006;28;20744;-68
2021/12/16 05:42:38;;;;;;;42.60;23.20;;;7.40;99.90;;;;;;5064393;28;20194;-67
2021/12/16 05:45:07;;;;;;;36.97;21.43;;;7.30;99.90;;;;;;5052231;28;20959;-68
2021/12/16 05:47:34;;;;;;;38.57;22.80;;;7.30;99.90;;;;;;5052136;28;20293;-66
2021/12/16 05:50:01;;;;;;;38.67;22.07;;;7.30;99.90;;;;;;5072728;28;20720;-68
2021/12/16 05:52:28;;;;;;;34.70;21.13;;;7.30;99.90;;;;;;5060645;28;20593;-67
2021/12/16 05:54:56;;;;;;;40.73;22.90;;;7.30;99.90;;;;;;5066050;28;20225;-68
2021/12/16 05:57:23;;;;;;;39.17;22.83;;;7.20;99.90;;;;;;5053001;28;20313;-68
2021/12/16 05:59:50;;;;;;;37.30;22.03;;;7.30;99.90;;;;;;5066342;28;20249;-67
2021/12/16 06:02:17;;;;;;;38.27;23.00;;;7.20;99.90;;;;;;5073810;28;20311;-68
2021/12/16 06:04:44;;;;;;;35.30;22.07;;;7.20;99.90;;;;;;5091294;28;20318;-67
2021/12/16 06:07:11;;;;;;;39.20;21.57;;;7.20;99.90;;;;;;5064459;28;20249;-67
2021/12/16 06:09:38;;;;;;;36.03;20.80;;;7.20;99.90;;;;;;5051603;28;20205;-68
2021/12/16 06:12:08;;;;;;;39.67;22.37;;;7.20;99.90;;;;;;5065971;28;20320;-69
2021/12/16 06:14:49;;;;;;;39.33;23.13;;;7.20;99.90;;;;;;5052152;28;20642;-67
2021/12/16 06:28:24;;;;;;;36.60;22.43;;;7.20;99.90;;;;;;5065718;28;20681;-68
2021/12/16 06:30:51;;;;;;;35.17;21.07;;;7.20;99.90;;;;;;5065034;28;20226;-68
2021/12/16 06:33:22;;;;;;;35.93;21.03;;;7.20;99.90;;;;;;5069195;28;20291;-68
2021/12/16 06:35:52;;;;;;;35.57;21.30;;;7.20;99.90;;;;;;5057948;28;20198;-68
2021/12/16 06:38:19;;;;;;;36.27;21.87;;;7.20;99.90;;;;;;5051917;28;20694;-68
2021/12/16 06:40:46;;;;;;;37.37;22.27;;;7.20;99.90;;;;;;5051238;28;20252;-67
2021/12/16 06:43:15;;;;;;;34.03;21.60;;;7.20;99.90;;;;;;5051104;28;20290;-68
2021/12/16 06:45:47;;;;;;;35.23;21.87;;;7.30;99.90;;;;;;5060513;28;20209;-67
2021/12/16 06:48:19;;;;;;;35.77;22.03;;;7.30;99.90;;;;;;5056295;28;20300;-68
2021/12/16 06:50:51;;;;;;;34.83;21.57;;;7.20;99.90;;;;;;5059330;28;20233;-68
2021/12/16 06:53:25;;;;;;;35.23;22.47;;;7.30;99.90;;;;;;5055465;28;20201;-67
2021/12/16 06:56:00;;;;;;;36.80;22.27;;;7.30;99.90;;;;;;5059554;28;20255;-68
2021/12/16 06:58:33;;;;;;;37.37;22.67;;;7.20;99.90;;;;;;5055818;28;20228;-68
2021/12/16 07:01:11;;;;;;;36.93;21.97;;;7.20;99.90;;;;;;5054766;28;20285;-68
2021/12/16 07:03:47;;;;;;;37.70;23.27;;;7.20;99.90;;;;;;5059782;28;20318;-68
2021/12/16 07:06:17;;;;;;;40.20;22.80;;;7.20;99.90;;;;;;5071114;28;20201;-68
2021/12/16 07:08:46;;;;;;;39.57;22.00;;;7.30;99.90;;;;;;5057557;28;20297;-69
2021/12/16 07:11:13;;;;;;;34.77;22.20;;;7.30;99.90;;;;;;5061767;28;20329;-68
2021/12/16 07:13:44;;;;;;;37.53;21.70;;;7.30;99.90;;;;;;5060580;28;20308;-68
2021/12/16 07:16:14;;;;;;;37.47;23.17;;;7.20;99.90;;;;;;5071443;28;20665;-71
2021/12/16 07:18:41;;;;;;;37.60;21.07;;;7.20;99.90;;;;;;5068719;28;20272;-69
2021/12/16 07:21:09;;;;;;;35.40;21.17;;;7.20;99.90;;;;;;5070556;28;20308;-70
2021/12/16 07:23:36;;;;;;;34.30;21.90;;;7.20;99.90;;;;;;5063928;28;20301;-70
2021/12/16 07:26:03;;;;;;;30.27;19.67;;;7.30;99.90;;;;;;5054843;28;20630;-71
2021/12/16 07:28:30;;;;;;;34.77;22.13;;;7.30;99.90;;;;;;5052020;28;20208;-69
2021/12/16 07:30:58;;;;;;;38.57;22.87;;;7.30;99.90;;;;;;5051239;28;20284;-69
2021/12/16 07:33:27;;;;;;;33.77;21.70;;;7.30;99.90;;;;;;5053015;28;20301;-69
2021/12/16 07:35:56;;;;;;;34.87;21.60;;;7.30;99.90;;;;;;5055645;28;20198;-69
2021/12/16 07:38:24;;;;;;;35.53;21.33;;;7.30;99.90;;;;;;5060477;28;20291;-68
2021/12/16 07:40:52;;;;;;;33.53;20.87;;;7.30;99.90;;;;;;5068880;28;20209;-68
2021/12/16 07:46:06;;;;;;;33.33;21.27;;;7.30;99.90;;;;;;5067609;28;20200;-71
2021/12/16 07:48:35;;;;;;;37.10;21.93;;;7.30;99.90;;;;;;5062804;28;20216;-68
2021/12/16 07:51:05;;;;;;;38.57;23.00;;;7.40;99.90;;;;;;5055513;28;20206;-68
2021/12/16 07:53:32;;;;;;;34.53;20.97;;;7.30;99.90;;;;;;5056002;28;20517;-67
2021/12/16 07:55:59;;;;;;;39.73;21.67;;;7.40;99.90;;;;;;5067726;28;20213;-69
2021/12/16 07:58:26;;;;;;;33.27;20.70;;;7.40;99.90;;;;;;5054944;28;20516;-68
2021/12/16 08:00:54;;;;;;;36.87;21.87;;;7.30;99.90;;;;;;5054380;28;20323;-68
2021/12/16 08:03:21;;;;;;;33.87;21.07;;;7.30;99.90;;;;;;5053602;28;20213;-68
2021/12/16 08:05:55;;;;;;;36.03;21.77;;;7.30;99.90;;;;;;5054205;28;20294;-68
2021/12/16 08:08:23;;;;;;;34.63;21.63;;;7.40;99.90;;;;;;5071415;28;20689;-70
2021/12/16 08:10:50;;;;;;;45.77;23.43;;;7.30;99.90;;;;;;5073853;28;20292;-69
2021/12/16 08:13:18;;;;;;;38.77;23.03;;;7.30;99.90;;;;;;5074253;28;20312;-69
2021/12/16 08:15:45;;;;;;;37.90;21.63;;;7.30;99.90;;;;;;5070648;28;20725;-68
2021/12/16 08:18:13;;;;;;;37.40;22.40;;;7.30;99.90;;;;;;5071025;28;20833;-68
2021/12/16 08:20:41;;;;;;;41.47;22.50;;;7.30;99.90;;;;;;5063491;28;20312;-69
2021/12/16 08:23:09;;;;;;;38.50;21.47;;;7.30;99.90;;;;;;5066108;28;20198;-69
2021/12/16 08:25:38;;;;;;;38.17;22.63;;;7.30;99.90;;;;;;5073155;28;20197;-68
2021/12/16 08:28:07;;;;;;;38.33;22.67;;;7.30;99.90;;;;;;5069099;28;20296;-68
2021/12/16 08:30:37;;;;;;;38.67;21.93;;;7.30;99.90;;;;;;5053357;28;20301;-68
2021/12/16 08:33:09;;;;;;;43.17;23.97;;;7.30;99.90;;;;;;5056528;28;20253;-69
2021/12/16 08:35:36;;;;;;;37.20;22.40;;;7.30;99.90;;;;;;5064894;28;20223;-68
2021/12/16 08:38:04;;;;;;;40.37;22.53;;;7.30;99.90;;;;;;5074285;28;20236;-68
2021/12/16 08:40:32;;;;;;;35.07;21.17;;;7.30;99.90;;;;;;5069283;28;20228;-68
2021/12/16 08:42:59;;;;;;;39.90;23.30;;;7.30;99.90;;;;;;5074478;28;20713;-68
2021/12/16 08:45:31;;;;;;;36.53;21.27;;;7.30;99.90;;;;;;5060791;28;20706;-68
2021/12/16 08:48:00;;;;;;;36.63;20.80;;;7.30;99.90;;;;;;5071907;28;20227;-68
2021/12/16 08:50:30;;;;;;;40.17;22.63;;;7.30;99.90;;;;;;5065336;28;20268;-68
2021/12/16 08:53:00;;;;;;;39.93;21.93;;;7.30;99.90;;;;;;5054701;28;20753;-68
2021/12/16 08:55:28;;;;;;;42.20;21.80;;;7.30;99.90;;;;;;5053813;28;20659;-68
2021/12/16 08:57:57;;;;;;;37.77;21.97;;;7.30;99.90;;;;;;5053154;28;20666;-68
2021/12/16 09:00:26;;;;;;;36.77;21.80;;;7.30;99.90;;;;;;5060895;28;20205;-68
2021/12/16 09:02:54;;;;;;;38.83;22.63;;;7.40;99.90;;;;;;5059350;28;20293;-69
2021/12/16 09:05:21;;;;;;;37.60;21.00;;;7.30;99.90;;;;;;5052914;28;20293;-69
2021/12/16 09:07:48;;;;;;;31.07;19.67;;;7.40;99.90;;;;;;5060297;28;20289;-70
2021/12/16 09:10:21;;;;;;;40.77;22.80;;;7.30;99.90;;;;;;5053073;28;20210;-68
2021/12/16 09:13:02;;;;;;;38.27;21.30;;;7.40;99.90;;;;;;5053246;28;20236;-69
2021/12/16 09:15:33;;;;;;;36.97;21.83;;;7.40;99.90;;;;;;5052986;28;20259;-70
2021/12/16 09:18:01;;;;;;;33.33;20.53;;;7.40;99.90;;;;;;5055692;28;20229;-68
2021/12/16 09:20:29;;;;;;;33.33;19.80;;;7.40;99.90;;;;;;5055448;28;20257;-70
2021/12/16 09:22:57;;;;;;;38.83;21.33;;;7.40;99.90;;;;;;5066242;28;20194;-70
2021/12/16 09:25:25;;;;;;;34.10;19.87;;;7.40;99.90;;;;;;5065301;28;20701;-69
2021/12/16 09:27:52;;;;;;;33.20;19.23;;;7.50;99.90;;;;;;5064728;28;20205;-69
2021/12/16 09:30:23;;;;;;;33.53;19.47;;;7.50;99.90;;;;;;5067331;28;20749;-71
2021/12/16 09:32:53;;;;;;;31.37;18.57;;;7.50;99.90;;;;;;5062248;28;20303;-70
2021/12/16 09:35:21;;;;;;;33.27;18.57;;;7.50;99.90;;;;;;5059602;28;20666;-69
2021/12/16 09:37:48;;;;;;;31.30;18.63;;;7.60;99.90;;;;;;5058998;28;20638;-69
2021/12/16 09:40:23;;;;;;;33.70;18.13;;;7.60;99.90;;;;;;5063840;28;20291;-70
2021/12/16 09:42:50;;;;;;;28.43;17.03;;;7.60;99.90;;;;;;5059807;28;20263;-69
2021/12/16 09:45:18;;;;;;;28.40;16.77;;;7.60;99.90;;;;;;5069841;28;20671;-69
2021/12/16 09:47:46;;;;;;;27.77;15.77;;;7.70;99.90;;;;;;5058384;28;20276;-69
2021/12/16 09:50:19;;;;;;;28.43;15.07;;;7.70;99.90;;;;;;5060200;28;20216;-71
2021/12/16 09:52:46;;;;;;;26.37;15.10;;;7.70;99.90;;;;;;5057524;28;20210;-70
2021/12/16 09:55:13;;;;;;;25.67;16.03;;;7.70;99.90;;;;;;5061520;28;20237;-69
2021/12/16 09:57:40;;;;;;;27.47;16.07;;;7.70;99.90;;;;;;5068581;28;20660;-69
2021/12/16 10:00:11;;;;;;;27.93;15.63;;;7.60;99.90;;;;;;5072735;28;20243;-69
2021/12/16 10:02:39;;;;;;;26.07;13.87;;;7.70;99.90;;;;;;5064670;28;20241;-69
2021/12/16 10:05:09;;;;;;;28.50;14.97;;;7.70;99.90;;;;;;5070950;28;20789;-69
2021/12/16 10:07:37;;;;;;;22.97;13.70;;;7.70;99.90;;;;;;5062754;28;20255;-69
2021/12/16 10:10:07;;;;;;;22.97;14.00;;;7.70;99.90;;;;;;5069744;28;20198;-69
2021/12/16 10:12:39;;;;;;;25.30;14.73;;;7.70;99.90;;;;;;5059683;28;20285;-69
2021/12/16 10:17:22;;;;;;;24.07;14.53;;;7.80;99.90;;;;;;5071019;28;20213;-69
2021/12/16 10:17:56;;;;;;;27.07;14.87;;;7.80;99.90;;;;;;5064158;28;20205;-69
2021/12/16 10:20:26;;;;;;;22.23;13.87;;;7.80;99.90;;;;;;5072227;28;20302;-70
2021/12/16 10:23:02;;;;;;;20.40;13.93;;;7.80;99.90;;;;;;5066779;28;20209;-70
2021/12/16 10:25:32;;;;;;;20.10;13.00;;;7.80;99.90;;;;;;5071086;28;20292;-70
2021/12/16 10:28:04;;;;;;;20.07;12.90;;;7.80;99.90;;;;;;5062184;28;20666;-69
2021/12/16 10:31:02;;;;;;;25.77;14.57;;;7.80;99.90;;;;;;5066903;28;20292;-69
2021/12/16 10:33:34;;;;;;;23.77;14.53;;;7.90;99.90;;;;;;5049548;28;20278;-71
2021/12/16 10:36:11;;;;;;;21.37;13.93;;;7.90;99.90;;;;;;5058063;28;20300;-70
2021/12/16 10:38:42;;;;;;;21.23;13.50;;;7.90;99.90;;;;;;5068268;28;20231;-70
2021/12/16 10:41:12;;;;;;;22.43;13.67;;;7.80;99.90;;;;;;5059334;28;20308;-69
2021/12/16 10:43:43;;;;;;;24.87;14.43;;;7.90;99.90;;;;;;5062781;28;20237;-67
2021/12/16 10:46:14;;;;;;;25.07;15.73;;;7.90;99.90;;;;;;5062078;28;20242;-70
2021/12/16 10:48:43;;;;;;;26.27;14.90;;;7.90;99.90;;;;;;5066995;28;20287;-69
2021/12/16 10:51:20;;;;;;;20.17;13.37;;;7.90;99.90;;;;;;5058095;28;20244;-70
2021/12/16 10:54:12;;;;;;;24.47;14.43;;;7.90;99.90;;;;;;5053704;28;20650;-70
2021/12/16 10:56:46;;;;;;;24.77;14.47;;;7.90;99.90;;;;;;5063259;28;20257;-69
2021/12/16 10:59:16;;;;;;;23.83;14.30;;;7.90;99.90;;;;;;5058038;28;20201;-70
2021/12/16 11:01:57;;;;;;;20.63;13.50;;;7.90;99.90;;;;;;5054478;28;20251;-69
2021/12/16 11:04:41;;;;;;;22.37;14.53;;;7.90;99.90;;;;;;5061466;28;20209;-69
2021/12/16 11:07:15;;;;;;;21.87;13.67;;;7.90;99.90;;;;;;5050049;28;20415;-69
2021/12/16 11:09:51;;;;;;;20.90;13.90;;;7.90;99.90;;;;;;5050801;28;20548;-70
2021/12/16 11:12:30;;;;;;;22.27;14.50;;;7.90;99.90;;;;;;5058729;28;20321;-69
2021/12/16 11:15:00;;;;;;;24.23;14.23;;;7.90;99.90;;;;;;5050877;28;20240;-70
2021/12/16 11:17:37;;;;;;;21.97;13.80;;;7.90;99.90;;;;;;5058588;28;20710;-69
2021/12/16 11:20:09;;;;;;;19.63;11.73;;;7.90;99.90;;;;;;5059203;28;20291;-69
2021/12/16 11:22:39;;;;;;;21.80;13.17;;;7.90;99.90;;;;;;5062681;28;20714;-68
2021/12/16 11:25:20;;;;;;;19.83;12.40;;;7.90;99.90;;;;;;5051544;28;20634;-70
2021/12/16 11:27:49;;;;;;;20.13;12.87;;;7.90;99.90;;;;;;5054376;28;20197;-69
2021/12/16 11:30:39;;;;;;;18.70;13.13;;;7.90;99.90;;;;;;5064324;28;20725;-70
2021/12/16 11:33:16;;;;;;;18.43;13.00;;;7.90;99.90;;;;;;5061101;28;20232;-71
2021/12/16 11:35:47;;;;;;;20.00;12.67;;;7.90;99.90;;;;;;5052938;28;20331;-70
2021/12/16 11:38:20;;;;;;;18.77;12.37;;;7.90;99.90;;;;;;5055923;28;20201;-71
2021/12/16 11:41:08;;;;;;;17.23;12.40;;;7.90;99.90;;;;;;5053516;28;20752;-70
2021/12/16 11:43:55;;;;;;;15.97;11.17;;;7.90;99.90;;;;;;5052034;28;20202;-71
2021/12/16 11:46:27;;;;;;;16.30;11.67;;;8.00;99.90;;;;;;5070999;28;20287;-71
2021/12/16 11:48:57;;;;;;;14.07;11.03;;;8.00;99.90;;;;;;5070373;28;20236;-72
2021/12/16 11:51:29;;;;;;;16.40;10.70;;;8.00;99.90;;;;;;5053428;28;20208;-70
2021/12/16 11:54:07;;;;;;;18.40;12.10;;;8.10;99.90;;;;;;5050750;28;20306;-70
2021/12/16 11:56:42;;;;;;;17.90;11.53;;;8.10;99.90;;;;;;5059754;28;20588;-69
2021/12/16 11:59:10;;;;;;;15.10;11.73;;;8.20;99.90;;;;;;5061951;28;20650;-70
2021/12/16 12:01:39;;;;;;;16.10;10.33;;;8.20;99.90;;;;;;5053620;28;20244;-71
2021/12/16 12:04:08;;;;;;;14.13;10.23;;;8.20;99.90;;;;;;5060361;28;20304;-70
2021/12/16 12:06:38;;;;;;;15.13;9.30;;;8.30;99.90;;;;;;5070176;28;20296;-70
2021/12/16 12:09:08;;;;;;;12.67;9.33;;;8.30;99.90;;;;;;5071311;28;20273;-70
2021/12/16 12:11:40;;;;;;;13.10;9.63;;;8.30;99.90;;;;;;5055425;28;20296;-70
2021/12/16 12:14:10;;;;;;;13.00;9.07;;;8.30;99.90;;;;;;5052482;28;20702;-70
2021/12/16 12:16:39;;;;;;;12.57;9.13;;;8.30;99.90;;;;;;5054167;28;20753;-70
2021/12/16 12:19:13;;;;;;;9.73;8.30;;;8.30;99.90;;;;;;5063239;28;20297;-70
2021/12/16 12:21:44;;;;;;;9.43;8.03;;;8.30;99.90;;;;;;5064680;28;20287;-70
2021/12/16 12:24:15;;;;;;;9.63;7.30;;;8.30;99.90;;;;;;5050421;28;20524;-70
2021/12/16 12:26:48;;;;;;;9.67;6.97;;;8.20;99.90;;;;;;5054596;28;20744;-71
2021/12/16 12:29:19;;;;;;;9.57;7.57;;;8.20;99.90;;;;;;5051172;28;20289;-71
2021/12/16 12:31:50;;;;;;;9.50;7.43;;;8.20;99.90;;;;;;5054156;28;20316;-70
2021/12/16 12:34:17;;;;;;;9.30;6.70;;;8.20;99.90;;;;;;5051474;28;20248;-70
2021/12/16 12:36:46;;;;;;;9.17;6.80;;;8.20;99.90;;;;;;5051131;28;20214;-71
2021/12/16 12:39:17;;;;;;;7.17;5.67;;;8.20;99.90;;;;;;5055821;28;20209;-69
2021/12/16 12:41:47;;;;;;;7.00;4.63;;;8.20;99.90;;;;;;5073688;28;20205;-70
2021/12/16 12:44:14;;;;;;;7.63;4.70;;;8.20;99.90;;;;;;5056480;28;20206;-70
2021/12/16 12:46:42;;;;;;;5.40;4.00;;;8.10;99.90;;;;;;5065544;28;20441;-69
2021/12/16 12:49:12;;;;;;;5.73;4.83;;;8.10;99.90;;;;;;5074759;28;20236;-69
2021/12/16 12:51:41;;;;;;;5.93;4.50;;;8.10;99.90;;;;;;5069078;28;20236;-69
2021/12/16 12:54:20;;;;;;;5.80;4.33;;;8.10;99.90;;;;;;5070149;28;20748;-69
2021/12/16 12:56:49;;;;;;;5.30;4.27;;;8.10;99.90;;;;;;5076651;28;20670;-69
2021/12/16 12:59:17;;;;;;;5.43;4.37;;;8.10;99.90;;;;;;5071705;28;20240;-68
2021/12/16 13:01:47;;;;;;;5.70;4.73;;;8.10;99.90;;;;;;5054722;28;20209;-71
2021/12/16 13:04:19;;;;;;;6.57;4.57;;;8.10;99.90;;;;;;5054639;28;20209;-69
2021/12/16 13:07:03;;;;;;;4.80;4.20;;;8.10;99.90;;;;;;5067241;28;20292;-69
2021/12/16 13:09:43;;;;;;;4.90;4.40;;;8.10;99.90;;;;;;5062841;28;20236;-69
2021/12/16 13:12:36;;;;;;;4.63;3.73;;;8.10;99.90;;;;;;5065545;28;20583;-69
2021/12/16 13:15:22;;;;;;;4.87;3.63;;;8.10;99.90;;;;;;5066431;28;20713;-70
2021/12/16 13:23:55;;;;;;;5.93;3.93;;;8.10;99.90;;;;;;5061200;28;20197;-69
2021/12/16 13:26:36;;;;;;;4.90;3.83;;;8.10;99.90;;;;;;5059263;28;20680;-69
2021/12/16 13:29:12;;;;;;;5.03;3.70;;;8.00;99.90;;;;;;5054732;28;20268;-69
2021/12/16 13:31:52;;;;;;;4.30;3.20;;;8.00;99.90;;;;;;5066236;28;20670;-69
2021/12/16 13:34:38;;;;;;;3.47;2.93;;;8.10;99.90;;;;;;5070716;28;20215;-69
2021/12/16 13:37:20;;;;;;;4.67;3.30;;;8.00;99.90;;;;;;5068710;28;20297;-70
2021/12/16 13:39:49;;;;;;;3.47;3.10;;;8.00;99.90;;;;;;5060187;28;20684;-69
2021/12/16 13:42:17;;;;;;;5.23;3.03;;;8.00;99.90;;;;;;5059405;28;20691;-70
2021/12/16 13:44:57;;;;;;;4.73;3.13;;;8.00;99.90;;;;;;5053355;28;20240;-69
2021/12/16 13:47:40;;;;;;;3.37;2.33;;;8.00;99.90;;;;;;5058766;28;20627;-69
2021/12/16 14:02:52;;;;;;;2.60;2.40;;;7.90;99.90;;;;;;5067659;28;20196;-70
2021/12/16 14:05:28;;;;;;;3.63;2.43;;;7.90;99.90;;;;;;5066849;28;20200;-72
2021/12/16 14:07:59;;;;;;;5.03;3.03;;;7.90;99.90;;;;;;5053521;28;20237;-69
2021/12/16 14:10:47;;;;;;;3.27;2.67;;;7.90;99.90;;;;;;5053629;28;20214;-70
2021/12/16 14:16:35;;;;;;;4.17;3.07;;;7.80;99.90;;;;;;5052872;28;20213;-69
2021/12/16 14:42:04;;;;;;;3.57;3.10;;;7.90;99.90;;;;;;5065067;28;20254;-71
2021/12/16 14:50:10;;;;;;;2.87;2.50;;;7.90;99.90;;;;;;5035102;28;20612;-69
2021/12/16 14:52:37;;;;;;;3.20;2.63;;;7.80;99.90;;;;;;5072598;28;20709;-69
2021/12/16 14:55:08;;;;;;;4.67;2.90;;;7.80;99.90;;;;;;5054363;28;20261;-69
2021/12/16 14:57:38;;;;;;;2.47;2.10;;;7.80;99.90;;;;;;5053529;28;20253;-70
2021/12/16 15:00:19;;;;;;;2.70;2.37;;;7.80;99.90;;;;;;5071577;28;20328;-70
2021/12/16 15:02:48;;;;;;;3.17;2.70;;;7.80;99.90;;;;;;5071174;28;20197;-70
2021/12/16 15:05:26;;;;;;;3.83;2.40;;;7.80;99.90;;;;;;5060883;28;20741;-69
2021/12/16 15:07:54;;;;;;;3.40;2.57;;;7.70;99.90;;;;;;5063641;28;20208;-69
2021/12/16 15:10:22;;;;;;;3.00;2.70;;;7.80;99.90;;;;;;5070559;28;20213;-70
2021/12/16 15:13:01;;;;;;;3.87;2.43;;;7.70;99.90;;;;;;5066443;28;20278;-69
2021/12/16 15:15:34;;;;;;;3.17;2.63;;;7.70;99.90;;;;;;5060773;28;20438;-69
2021/12/16 15:40:33;;;;;;;4.50;2.83;;;7.70;99.90;;;;;;5069619;28;20208;-67
2021/12/16 15:43:03;;;;;;;4.27;3.27;;;7.60;99.90;;;;;;5071040;28;20740;-69
2021/12/16 15:45:32;;;;;;;4.83;3.10;;;7.60;99.90;;;;;;5068034;28;20205;-68
2021/12/16 15:48:04;;;;;;;4.17;2.57;;;7.50;99.90;;;;;;5061659;28;20296;-68
2021/12/16 15:50:33;;;;;;;6.90;4.03;;;7.50;99.90;;;;;;5060054;28;20209;-68
2021/12/16 15:53:06;;;;;;;8.67;4.07;;;7.50;99.90;;;;;;5049844;28;20244;-69
2021/12/16 15:55:37;;;;;;;4.13;3.17;;;7.40;99.90;;;;;;5059958;28;20244;-68
2021/12/16 15:58:08;;;;;;;4.27;2.97;;;7.40;99.90;;;;;;5065540;28;20278;-69
2021/12/16 16:00:38;;;;;;;5.77;3.30;;;7.40;99.90;;;;;;5064221;28;20698;-67
2021/12/16 16:03:08;;;;;;;5.77;2.80;;;7.40;99.90;;;;;;5066648;28;20213;-68